Terminal Aerodrome Forecast
Issued by NWS

Home | Current Version | Previous Version | Graphics & Text | Print | Product List | Glossary On
Versions: 1 2 3 4 5 6 7 8 9 10 11 12 13 14 15 16 17 18 19 20
000
FTUS43 KGRB 241100
TAFRHI
TAF
KRHI 241138Z 2412/2512 11008KT 6SM -SHSN SCT025 OVC040
     FM241500 11011G16KT 5SM -RASN SCT009 OVC015
     FM242000 11012G20KT 3SM -RASN BR SCT005 OVC012
      TEMPO 2420/2424 1SM -SN BR BKN005
     FM250000 12008KT 2SM -RASN BR BKN003 OVC010
     FM250800 29007KT 6SM BR SCT010 BKN020=

USA.gov is the U.S. government's official web portal to all federal, state and local government web resources and services.